Time;durP1;ratioP1;P1;durP2;ratioP2;P2;SDS_P1;SDS_P2;PMS_P1;PMS_P2;Temp;Humidity;BMP_temperature;BMP_pressure;BME280_temperature;BME280_humidity;BME280_pressure;Samples;Min_cycle;Max_cycle;Signal;HPM_P1;HPM_P2
2023/01/10 00:01:43;;;;;;;82.77;33.00;;;6.10;99.90;;;;;;5043192;28;20242;-51
2023/01/10 00:04:11;;;;;;;58.73;25.73;;;6.20;99.90;;;;;;5047943;28;20268;-50
2023/01/10 00:06:39;;;;;;;83.50;32.67;;;6.20;99.90;;;;;;5048827;28;20840;-50
2023/01/10 00:09:07;;;;;;;77.07;37.50;;;6.20;99.90;;;;;;5048493;28;20245;-51
2023/01/10 00:14:21;;;;;;;19.80;12.77;;;6.30;99.90;;;;;;5048844;28;20280;-51
2023/01/10 00:16:50;;;;;;;24.50;21.90;;;6.30;99.90;;;;;;5048742;28;20260;-50
2023/01/10 00:19:18;;;;;;;32.97;26.73;;;6.30;99.90;;;;;;5030198;28;20263;-50
2023/01/10 00:21:46;;;;;;;25.40;22.67;;;6.30;99.90;;;;;;5048830;28;20212;-50
2023/01/10 00:24:18;;;;;;;63.73;20.43;;;6.30;99.90;;;;;;5048187;28;20248;-51
2023/01/10 00:26:50;;;;;;;173.30;51.97;;;6.30;99.90;;;;;;5042293;28;20649;-49
2023/01/10 00:29:19;;;;;;;70.47;37.37;;;6.30;99.90;;;;;;5044630;28;20219;-50
2023/01/10 00:31:47;;;;;;;104.83;35.67;;;6.30;99.90;;;;;;5048486;28;20234;-51
2023/01/10 00:34:17;;;;;;;103.60;47.93;;;6.20;99.90;;;;;;5048568;28;20216;-50
2023/01/10 00:36:46;;;;;;;449.27;137.20;;;6.20;99.90;;;;;;5048229;28;20225;-50
2023/01/10 00:39:16;;;;;;;93.97;33.47;;;6.30;99.90;;;;;;5048238;28;20238;-50
2023/01/10 00:44:30;;;;;;;59.40;41.27;;;6.20;99.90;;;;;;5048214;28;20255;-51
2023/01/10 00:46:58;;;;;;;465.67;69.03;;;6.20;99.90;;;;;;5048006;28;20291;-50
2023/01/10 00:49:27;;;;;;;210.00;55.93;;;6.10;99.90;;;;;;5048414;28;20245;-51
2023/01/10 00:51:57;;;;;;;35.77;15.23;;;6.10;99.90;;;;;;5040260;28;20205;-50
2023/01/10 00:54:25;;;;;;;91.83;29.80;;;6.10;99.90;;;;;;5048622;28;20205;-51
2023/01/10 00:56:53;;;;;;;134.63;31.10;;;6.10;99.90;;;;;;5051609;28;20320;-50
2023/01/10 00:59:21;;;;;;;26.47;23.70;;;6.00;99.90;;;;;;5051482;28;20201;-50
2023/01/10 01:01:50;;;;;;;118.30;55.67;;;6.10;99.90;;;;;;5051173;28;20719;-50
2023/01/10 01:04:18;;;;;;;45.03;26.93;;;6.10;99.90;;;;;;5046144;28;20670;-50
2023/01/10 01:06:49;;;;;;;70.57;31.33;;;6.10;99.90;;;;;;5043467;28;20236;-51
2023/01/10 01:09:17;;;;;;;94.77;42.10;;;6.10;99.90;;;;;;5034228;28;20230;-50
2023/01/10 01:11:45;;;;;;;80.10;36.77;;;6.10;99.90;;;;;;5031174;28;20210;-50
2023/01/10 01:14:13;;;;;;;159.37;49.97;;;6.10;99.90;;;;;;5030782;28;20260;-51
2023/01/10 01:16:41;;;;;;;24.33;20.13;;;6.10;99.90;;;;;;5028256;28;20301;-50
2023/01/10 01:19:10;;;;;;;29.10;26.07;;;6.10;99.90;;;;;;5031566;28;20210;-50
2023/01/10 01:21:38;;;;;;;22.27;19.63;;;6.10;99.90;;;;;;5031404;28;20251;-50
2023/01/10 01:24:08;;;;;;;68.80;40.43;;;6.10;99.90;;;;;;5017456;28;20260;-50
2023/01/10 01:26:36;;;;;;;32.70;29.27;;;6.00;99.90;;;;;;5027079;28;20208;-51
2023/01/10 01:29:04;;;;;;;19.83;17.83;;;6.00;99.90;;;;;;5028688;28;20263;-49
2023/01/10 01:31:32;;;;;;;37.17;22.83;;;6.00;99.90;;;;;;5022737;28;20252;-50
2023/01/10 01:34:00;;;;;;;38.97;33.13;;;6.00;99.90;;;;;;5025537;28;20631;-50
2023/01/10 01:36:28;;;;;;;97.87;44.30;;;5.90;99.90;;;;;;5030894;28;20291;-50
2023/01/10 01:38:56;;;;;;;53.47;34.77;;;5.80;99.90;;;;;;5018231;28;20638;-51
2023/01/10 01:44:16;;;;;;;20.87;18.83;;;5.90;99.90;;;;;;5030909;28;20213;-50
2023/01/10 01:46:47;;;;;;;73.57;36.40;;;5.90;99.90;;;;;;5030983;28;20301;-50
2023/01/10 01:49:19;;;;;;;26.07;23.77;;;5.90;99.90;;;;;;5030877;28;20254;-50
2023/01/10 01:51:48;;;;;;;30.50;24.97;;;5.90;99.90;;;;;;5022410;28;20730;-49
2023/01/10 01:54:18;;;;;;;23.93;21.17;;;5.90;99.90;;;;;;5030648;28;20248;-50
2023/01/10 01:56:51;;;;;;;33.60;20.17;;;5.90;99.90;;;;;;5031173;28;20301;-50
2023/01/10 01:59:23;;;;;;;16.93;15.53;;;5.90;99.90;;;;;;5030626;28;20225;-50
2023/01/10 02:01:56;;;;;;;143.87;56.97;;;5.90;99.90;;;;;;5031029;28;20558;-50
2023/01/10 02:04:28;;;;;;;16.67;14.87;;;5.90;99.90;;;;;;5027425;28;20225;-51
2023/01/10 02:06:58;;;;;;;49.57;28.67;;;5.80;99.90;;;;;;5030153;28;20235;-50
2023/01/10 02:09:32;;;;;;;34.07;17.60;;;5.80;99.90;;;;;;5030538;28;20333;-50
2023/01/10 02:12:02;;;;;;;141.87;44.30;;;5.80;99.90;;;;;;5030811;28;20248;-50
2023/01/10 02:14:32;;;;;;;312.10;97.40;;;5.80;99.90;;;;;;5030862;28;20266;-50
2023/01/10 02:17:00;;;;;;;17.43;15.33;;;5.80;99.90;;;;;;5030913;28;20254;-50
2023/01/10 02:19:37;;;;;;;23.20;19.33;;;5.80;99.90;;;;;;5025450;28;20698;-51
2023/01/10 02:22:48;;;;;;;25.63;19.57;;;5.80;99.90;;;;;;5030159;28;20239;-51
2023/01/10 02:25:46;;;;;;;21.07;17.27;;;5.80;99.90;;;;;;5029672;28;20209;-50
2023/01/10 02:28:53;;;;;;;18.47;17.17;;;5.80;99.90;;;;;;5027018;28;20314;-50
2023/01/10 02:31:41;;;;;;;39.60;26.60;;;5.90;99.90;;;;;;5030456;28;20246;-51
2023/01/10 02:34:15;;;;;;;137.87;45.00;;;5.80;99.90;;;;;;5017403;28;20256;-50
2023/01/10 02:36:50;;;;;;;71.90;28.13;;;5.90;99.90;;;;;;5029621;28;20935;-51
2023/01/10 02:39:28;;;;;;;14.90;13.30;;;5.90;99.90;;;;;;5030316;28;20200;-50
2023/01/10 02:42:02;;;;;;;39.30;29.67;;;6.00;99.90;;;;;;5029727;28;20240;-50
2023/01/10 02:44:37;;;;;;;42.27;26.80;;;6.00;99.90;;;;;;5030238;28;20240;-51
2023/01/10 02:47:08;;;;;;;15.27;12.33;;;6.00;99.90;;;;;;5030112;28;20319;-49
2023/01/10 02:49:43;;;;;;;22.67;17.93;;;6.00;99.90;;;;;;5030247;28;20233;-51
2023/01/10 02:52:15;;;;;;;17.70;16.23;;;6.00;99.90;;;;;;5029815;28;20679;-50
2023/01/10 02:54:44;;;;;;;108.27;38.53;;;6.00;99.90;;;;;;5029973;28;20217;-51
2023/01/10 02:57:33;;;;;;;32.07;14.90;;;5.90;99.90;;;;;;5023974;28;20257;-51
2023/01/10 03:00:25;;;;;;;24.47;21.87;;;5.80;99.90;;;;;;5028324;28;20203;-50
2023/01/10 03:03:08;;;;;;;28.10;24.57;;;5.80;99.90;;;;;;5026143;28;20234;-50
2023/01/10 03:05:51;;;;;;;29.80;18.77;;;5.80;99.90;;;;;;5022948;28;20699;-50
2023/01/10 03:08:27;;;;;;;41.80;23.20;;;5.80;99.90;;;;;;5017947;28;20287;-51
2023/01/10 03:10:59;;;;;;;37.53;33.53;;;5.80;99.90;;;;;;5029721;28;20253;-50
2023/01/10 03:13:34;;;;;;;42.43;34.17;;;5.70;99.90;;;;;;5026613;28;20695;-51
2023/01/10 03:16:04;;;;;;;39.83;29.53;;;5.60;99.90;;;;;;5025178;28;20641;-51
2023/01/10 03:18:36;;;;;;;51.67;27.10;;;5.50;99.90;;;;;;5029289;28;20309;-50
2023/01/10 03:21:08;;;;;;;60.00;24.17;;;5.40;99.90;;;;;;5029648;28;20243;-51
2023/01/10 03:23:37;;;;;;;28.63;25.87;;;5.30;99.90;;;;;;5028620;28;20257;-50
2023/01/10 03:26:08;;;;;;;53.83;35.27;;;5.20;99.90;;;;;;5028800;28;20238;-49
2023/01/10 03:28:44;;;;;;;55.73;28.67;;;5.10;99.90;;;;;;5029166;28;20262;-50
2023/01/10 03:31:17;;;;;;;34.73;27.93;;;5.00;99.90;;;;;;5029490;28;20241;-51
2023/01/10 03:33:45;;;;;;;79.00;37.53;;;5.00;99.90;;;;;;5028990;28;20210;-50
2023/01/10 03:36:22;;;;;;;116.23;28.50;;;5.00;99.90;;;;;;5029088;28;20305;-50
2023/01/10 03:38:53;;;;;;;20.87;16.30;;;5.00;99.90;;;;;;5026954;28;20309;-50
2023/01/10 03:41:33;;;;;;;21.97;16.23;;;5.00;99.90;;;;;;5029063;28;20675;-51
2023/01/10 03:47:04;;;;;;;29.97;26.03;;;4.90;99.90;;;;;;5025542;28;20399;-50
2023/01/10 03:49:34;;;;;;;28.13;24.00;;;4.90;99.90;;;;;;5029128;28;20264;-51
2023/01/10 03:52:05;;;;;;;24.33;17.73;;;4.80;99.90;;;;;;5028551;28;20247;-50
2023/01/10 03:54:33;;;;;;;23.50;20.90;;;4.80;99.90;;;;;;5029193;28;20286;-50
2023/01/10 03:57:01;;;;;;;30.90;23.27;;;4.80;99.90;;;;;;5024406;28;20265;-50
2023/01/10 03:59:30;;;;;;;66.30;27.37;;;4.70;99.90;;;;;;5028604;28;20213;-51
2023/01/10 04:01:58;;;;;;;41.23;27.77;;;4.70;99.90;;;;;;5028460;28;20241;-51
2023/01/10 04:04:26;;;;;;;70.97;31.23;;;4.70;99.90;;;;;;5028616;28;20206;-50
2023/01/10 04:06:54;;;;;;;28.33;25.53;;;4.70;99.90;;;;;;5028656;28;20308;-50
2023/01/10 04:09:24;;;;;;;32.03;28.37;;;4.70;99.90;;;;;;5028203;28;20233;-50
2023/01/10 04:11:52;;;;;;;41.53;31.53;;;4.80;99.90;;;;;;5028296;28;20711;-51
2023/01/10 04:14:20;;;;;;;77.40;28.90;;;4.80;99.90;;;;;;5028348;28;20289;-50
2023/01/10 04:16:48;;;;;;;108.73;38.17;;;4.80;99.90;;;;;;5025235;28;20234;-51
2023/01/10 04:19:16;;;;;;;39.33;24.77;;;4.90;99.90;;;;;;5028664;28;20237;-51
2023/01/10 04:21:44;;;;;;;143.03;60.23;;;4.90;99.90;;;;;;5027999;28;20266;-51
2023/01/10 04:24:12;;;;;;;39.93;21.67;;;4.90;99.90;;;;;;5027453;28;20767;-51
2023/01/10 04:26:42;;;;;;;41.30;28.87;;;4.90;99.90;;;;;;5028711;28;20215;-50
2023/01/10 04:29:10;;;;;;;64.77;41.13;;;4.80;99.90;;;;;;5029105;28;20227;-50
2023/01/10 04:31:39;;;;;;;78.53;27.27;;;4.90;99.90;;;;;;5032295;28;20249;-50
2023/01/10 04:34:08;;;;;;;20.20;18.27;;;4.90;99.90;;;;;;5025349;28;20221;-51
2023/01/10 04:36:36;;;;;;;39.63;18.20;;;4.90;99.90;;;;;;5031991;28;20276;-56
2023/01/10 04:39:04;;;;;;;31.20;20.60;;;4.90;99.90;;;;;;5031822;28;20211;-51
2023/01/10 04:41:32;;;;;;;91.40;44.70;;;5.00;99.90;;;;;;5032840;28;20241;-50
2023/01/10 04:44:02;;;;;;;33.83;23.90;;;5.10;99.90;;;;;;5032295;28;20235;-50
2023/01/10 04:46:30;;;;;;;19.70;17.03;;;5.10;99.90;;;;;;5032742;28;20218;-50
2023/01/10 04:48:59;;;;;;;41.17;22.87;;;5.10;99.90;;;;;;5032260;28;20294;-51
2023/01/10 04:51:27;;;;;;;76.47;34.53;;;5.20;99.90;;;;;;5032614;28;20297;-50
2023/01/10 04:53:56;;;;;;;39.03;20.40;;;5.20;99.90;;;;;;5028975;28;20295;-50
2023/01/10 04:56:25;;;;;;;74.17;32.23;;;5.20;99.90;;;;;;5032132;28;20206;-50
2023/01/10 04:58:53;;;;;;;38.43;29.23;;;5.20;99.90;;;;;;5031798;28;20310;-50
2023/01/10 05:01:24;;;;;;;39.50;30.40;;;5.30;99.90;;;;;;5032195;28;20202;-50
2023/01/10 05:03:54;;;;;;;39.47;35.03;;;5.30;99.90;;;;;;5026814;28;20246;-51
2023/01/10 05:06:24;;;;;;;57.13;34.93;;;5.20;99.90;;;;;;5014149;28;20207;-51
2023/01/10 05:08:52;;;;;;;36.07;24.67;;;5.10;99.90;;;;;;5024431;28;20237;-50
2023/01/10 05:11:20;;;;;;;64.70;28.90;;;5.10;99.90;;;;;;5031823;28;20971;-50
2023/01/10 05:13:48;;;;;;;34.67;30.87;;;5.10;99.90;;;;;;5031217;28;20261;-49
2023/01/10 05:16:16;;;;;;;35.60;25.43;;;5.10;99.90;;;;;;5017991;28;21030;-51
2023/01/10 05:18:46;;;;;;;48.23;36.60;;;5.10;99.90;;;;;;5028648;28;20747;-50
2023/01/10 05:21:14;;;;;;;30.80;25.30;;;5.20;99.90;;;;;;5024549;28;20231;-51
2023/01/10 05:23:43;;;;;;;22.73;19.40;;;5.20;99.90;;;;;;5026427;28;21048;-51
2023/01/10 05:26:12;;;;;;;43.57;32.63;;;5.20;99.90;;;;;;5031889;28;20273;-50
2023/01/10 05:28:41;;;;;;;46.60;28.47;;;5.20;99.90;;;;;;5031149;28;20263;-50
2023/01/10 05:31:11;;;;;;;22.57;18.17;;;5.20;99.90;;;;;;5031679;28;20283;-50
2023/01/10 05:33:43;;;;;;;46.47;29.37;;;5.20;99.90;;;;;;5031127;28;20273;-51
2023/01/10 05:36:12;;;;;;;113.97;43.67;;;5.20;99.90;;;;;;5022025;28;20249;-51
2023/01/10 05:38:40;;;;;;;41.70;29.37;;;5.20;99.90;;;;;;5027226;28;20256;-50
2023/01/10 05:41:09;;;;;;;114.90;42.07;;;5.20;99.90;;;;;;5023926;28;20242;-51
2023/01/10 05:43:37;;;;;;;23.80;21.03;;;5.20;99.90;;;;;;5031172;28;20286;-50
2023/01/10 05:46:05;;;;;;;28.93;23.53;;;5.20;99.90;;;;;;5031182;28;20234;-50
2023/01/10 05:48:33;;;;;;;46.90;31.27;;;5.30;99.90;;;;;;5030981;28;20252;-50
2023/01/10 05:51:01;;;;;;;47.53;37.33;;;5.20;99.90;;;;;;5030617;28;20311;-50
2023/01/10 05:53:31;;;;;;;153.07;40.17;;;5.20;99.90;;;;;;5031032;28;20219;-50
2023/01/10 05:56:00;;;;;;;22.83;18.33;;;5.20;99.90;;;;;;5030789;28;20290;-50
2023/01/10 05:58:29;;;;;;;87.23;38.80;;;5.30;99.90;;;;;;5022351;28;20667;-51
2023/01/10 06:00:58;;;;;;;22.17;20.03;;;5.30;99.90;;;;;;5030692;28;20232;-50
2023/01/10 06:03:26;;;;;;;31.50;21.40;;;5.30;99.90;;;;;;5030691;28;20600;-51
2023/01/10 06:05:54;;;;;;;40.67;25.97;;;5.20;99.90;;;;;;5031176;28;20297;-50
2023/01/10 06:08:23;;;;;;;36.37;27.93;;;5.20;99.90;;;;;;5030821;28;20235;-50
2023/01/10 06:10:52;;;;;;;42.70;34.63;;;5.10;99.90;;;;;;5030433;28;20634;-50
2023/01/10 06:13:20;;;;;;;68.83;39.37;;;5.10;99.90;;;;;;5024077;28;20957;-50
2023/01/10 06:15:49;;;;;;;31.63;20.70;;;5.10;99.90;;;;;;5024158;28;20224;-50
2023/01/10 06:18:17;;;;;;;30.57;24.10;;;5.00;99.90;;;;;;5026663;28;20237;-51
2023/01/10 06:20:45;;;;;;;35.17;30.17;;;4.90;99.90;;;;;;5030910;28;20310;-50
2023/01/10 06:23:13;;;;;;;51.53;36.83;;;4.80;99.90;;;;;;5026322;28;20685;-51
2023/01/10 06:25:41;;;;;;;61.40;41.93;;;4.80;99.90;;;;;;5025958;28;20680;-51
2023/01/10 06:28:13;;;;;;;42.23;27.63;;;4.80;99.90;;;;;;5023895;28;20797;-50
2023/01/10 06:30:42;;;;;;;49.33;27.07;;;4.90;99.90;;;;;;5030301;28;20223;-50
2023/01/10 06:33:11;;;;;;;28.40;20.77;;;4.90;99.90;;;;;;5029753;28;20207;-51
2023/01/10 06:35:39;;;;;;;66.33;31.53;;;4.90;99.90;;;;;;5030423;28;20217;-51
2023/01/10 06:38:08;;;;;;;340.10;100.87;;;4.90;99.90;;;;;;5020169;28;20223;-51
2023/01/10 06:40:36;;;;;;;30.03;26.17;;;4.90;99.90;;;;;;5027352;28;20202;-51
2023/01/10 06:43:04;;;;;;;95.23;31.90;;;5.00;99.90;;;;;;5019746;28;20244;-51
2023/01/10 06:45:34;;;;;;;28.00;23.67;;;5.00;99.90;;;;;;5026398;28;20240;-50
2023/01/10 06:48:02;;;;;;;44.07;28.97;;;5.00;99.90;;;;;;5030083;28;20274;-50
2023/01/10 06:50:30;;;;;;;460.30;89.20;;;5.00;99.90;;;;;;5029393;28;20234;-50
2023/01/10 06:53:00;;;;;;;66.93;43.97;;;5.00;99.90;;;;;;5028947;28;20211;-51
2023/01/10 06:55:29;;;;;;;104.23;39.83;;;4.90;99.90;;;;;;5027809;28;20204;-51
2023/01/10 06:57:57;;;;;;;44.80;27.57;;;4.80;99.90;;;;;;5029922;28;20255;-50
2023/01/10 07:00:27;;;;;;;38.00;23.33;;;4.70;99.90;;;;;;5029146;28;20248;-51
2023/01/10 07:02:58;;;;;;;97.07;35.47;;;4.60;99.90;;;;;;5029120;28;20297;-51
2023/01/10 07:05:27;;;;;;;29.33;22.80;;;4.70;99.90;;;;;;5029378;28;20220;-50
2023/01/10 07:07:57;;;;;;;96.57;48.80;;;4.70;99.90;;;;;;5029137;28;20269;-51
2023/01/10 07:10:25;;;;;;;114.93;47.43;;;4.60;99.90;;;;;;5029493;28;20249;-51
2023/01/10 07:12:55;;;;;;;42.90;31.70;;;4.70;99.90;;;;;;5027851;28;20644;-50
2023/01/10 07:15:23;;;;;;;47.97;35.33;;;4.70;99.90;;;;;;5028617;28;20206;-51
2023/01/10 07:17:51;;;;;;;225.40;75.83;;;4.80;99.90;;;;;;5022081;28;20324;-51
2023/01/10 07:20:20;;;;;;;74.40;37.33;;;4.80;99.90;;;;;;5029146;28;20238;-51
2023/01/10 07:22:53;;;;;;;75.90;32.53;;;4.90;99.90;;;;;;5029157;28;20277;-50
2023/01/10 07:25:21;;;;;;;31.07;24.20;;;4.90;99.90;;;;;;5029460;28;20294;-51
2023/01/10 07:27:49;;;;;;;31.63;28.20;;;4.90;99.90;;;;;;5028958;28;20240;-51
2023/01/10 07:30:18;;;;;;;81.50;49.83;;;5.00;99.90;;;;;;5026569;28;20206;-51
2023/01/10 07:32:46;;;;;;;43.20;34.70;;;5.10;99.90;;;;;;5022099;28;20269;-51
2023/01/10 07:35:14;;;;;;;56.80;36.53;;;5.10;99.90;;;;;;5025191;28;20238;-50
2023/01/10 07:37:43;;;;;;;32.20;23.40;;;5.10;99.90;;;;;;5018102;28;20269;-51
2023/01/10 07:40:12;;;;;;;31.07;22.70;;;5.10;99.90;;;;;;5027703;28;20261;-50
2023/01/10 07:42:40;;;;;;;105.17;40.73;;;5.10;99.90;;;;;;5028202;28;20296;-51
2023/01/10 07:45:09;;;;;;;77.43;37.80;;;5.20;99.90;;;;;;5023489;28;20207;-51
2023/01/10 07:47:37;;;;;;;59.43;39.00;;;5.20;99.90;;;;;;5028797;28;20257;-52
2023/01/10 07:50:06;;;;;;;102.27;49.97;;;5.20;99.90;;;;;;5028546;28;20822;-51
2023/01/10 07:52:34;;;;;;;176.53;54.60;;;5.20;99.90;;;;;;5028691;28;20324;-50
2023/01/10 07:55:04;;;;;;;519.57;91.73;;;5.20;99.90;;;;;;5028828;28;20649;-51
2023/01/10 07:57:32;;;;;;;501.03;93.53;;;5.20;99.90;;;;;;5029383;28;20600;-51
2023/01/10 08:00:00;;;;;;;90.00;43.80;;;5.20;99.90;;;;;;5028997;28;20207;-50
2023/01/10 08:02:28;;;;;;;918.63;178.40;;;5.20;99.90;;;;;;5041824;28;20264;-51
2023/01/10 08:04:56;;;;;;;169.40;49.40;;;5.20;99.90;;;;;;5030375;28;20254;-51
2023/01/10 08:07:24;;;;;;;446.53;92.37;;;5.20;99.90;;;;;;5030364;28;20254;-51
2023/01/10 08:09:52;;;;;;;215.07;46.37;;;5.20;99.90;;;;;;5033126;28;20248;-51
2023/01/10 08:12:23;;;;;;;222.87;83.87;;;5.30;99.90;;;;;;5032943;28;20305;-50
2023/01/10 08:14:51;;;;;;;213.60;72.07;;;5.30;99.90;;;;;;5029670;28;20213;-51
2023/01/10 08:17:20;;;;;;;77.63;37.13;;;5.30;99.90;;;;;;5032690;28;20224;-51
2023/01/10 08:19:48;;;;;;;602.73;93.77;;;5.30;99.90;;;;;;5033126;28;20673;-50
2023/01/10 08:22:16;;;;;;;380.30;72.83;;;5.40;99.90;;;;;;5032577;28;20734;-51
2023/01/10 08:24:44;;;;;;;116.90;46.23;;;5.50;99.90;;;;;;5032900;28;20252;-51
2023/01/10 08:27:12;;;;;;;324.20;84.13;;;5.50;99.90;;;;;;5027580;28;20230;-51
2023/01/10 08:29:41;;;;;;;273.23;71.97;;;5.40;99.90;;;;;;5029637;28;20685;-51
2023/01/10 08:32:10;;;;;;;218.47;73.00;;;5.50;99.90;;;;;;5031066;28;20228;-51
2023/01/10 08:34:38;;;;;;;104.13;39.73;;;5.50;99.90;;;;;;5028645;28;20699;-51
2023/01/10 08:37:06;;;;;;;198.40;46.50;;;5.50;99.90;;;;;;5031553;28;20257;-50
2023/01/10 08:39:34;;;;;;;764.27;139.83;;;5.50;99.90;;;;;;5031938;28;20209;-51
2023/01/10 08:42:02;;;;;;;68.50;37.23;;;5.60;99.90;;;;;;5031996;28;20238;-50
2023/01/10 08:44:31;;;;;;;74.17;37.50;;;5.50;99.90;;;;;;5032267;28;20681;-50
2023/01/10 08:47:00;;;;;;;126.07;45.30;;;5.60;99.90;;;;;;5031645;28;20287;-50
2023/01/10 08:49:28;;;;;;;79.23;37.70;;;5.50;99.90;;;;;;5031919;28;20761;-51
2023/01/10 08:51:56;;;;;;;81.20;43.07;;;5.50;99.90;;;;;;5026645;28;20251;-52
2023/01/10 08:54:24;;;;;;;174.07;71.20;;;5.50;99.90;;;;;;5031970;28;20577;-51
2023/01/10 08:56:52;;;;;;;86.93;49.57;;;5.60;99.90;;;;;;5032295;28;20242;-51
2023/01/10 08:59:20;;;;;;;545.10;84.93;;;5.60;99.90;;;;;;5032004;28;20286;-51
2023/01/10 09:01:48;;;;;;;481.57;88.17;;;5.60;99.90;;;;;;5032080;28;20295;-50
2023/01/10 09:04:18;;;;;;;47.83;28.37;;;5.60;99.90;;;;;;5030693;28;20213;-51
2023/01/10 09:06:46;;;;;;;1990.63;304.07;;;5.60;99.90;;;;;;5031741;28;20240;-50
2023/01/10 09:09:14;;;;;;;261.63;82.90;;;5.60;99.90;;;;;;5022725;28;20286;-50
2023/01/10 09:11:42;;;;;;;837.40;142.40;;;5.70;99.90;;;;;;5031686;28;20325;-51
2023/01/10 09:14:10;;;;;;;211.90;80.67;;;5.70;99.90;;;;;;5031144;28;20237;-50
2023/01/10 09:16:38;;;;;;;249.60;81.70;;;5.70;99.90;;;;;;5031465;28;20325;-51
2023/01/10 09:19:06;;;;;;;393.90;113.23;;;5.80;99.90;;;;;;5032062;28;20322;-51
2023/01/10 09:21:35;;;;;;;273.83;62.53;;;5.80;99.90;;;;;;5032169;28;20255;-50
2023/01/10 09:24:03;;;;;;;282.10;86.10;;;5.90;99.90;;;;;;5031544;28;20585;-51
2023/01/10 09:26:31;;;;;;;818.33;193.53;;;5.90;99.90;;;;;;5030120;28;20299;-51
2023/01/10 09:28:59;;;;;;;1223.43;251.30;;;5.80;99.90;;;;;;5032049;28;20202;-50
2023/01/10 09:31:27;;;;;;;660.60;152.57;;;5.80;99.90;;;;;;5031857;28;20858;-51
2023/01/10 09:33:55;;;;;;;568.63;134.80;;;5.80;99.90;;;;;;5028646;28;20617;-51
2023/01/10 09:36:24;;;;;;;134.07;48.10;;;5.90;99.90;;;;;;5031537;28;20217;-49
2023/01/10 09:38:53;;;;;;;1381.10;257.27;;;5.90;99.90;;;;;;5031645;28;20266;-50
2023/01/10 09:41:49;;;;;;;822.80;138.87;;;5.90;99.90;;;;;;5031827;28;20624;-51
2023/01/10 09:44:20;;;;;;;768.00;113.33;;;5.90;99.90;;;;;;5031497;28;20258;-50
2023/01/10 09:46:55;;;;;;;139.13;46.57;;;5.90;99.90;;;;;;5031389;28;20231;-51
2023/01/10 09:49:36;;;;;;;606.07;119.10;;;5.90;99.90;;;;;;5031328;28;20241;-51
2023/01/10 09:52:10;;;;;;;1158.70;167.40;;;5.90;99.90;;;;;;5030756;28;20256;-51
2023/01/10 09:54:42;;;;;;;1442.77;202.67;;;6.00;99.90;;;;;;5024732;28;20264;-50
2023/01/10 09:57:15;;;;;;;249.83;83.33;;;6.00;99.90;;;;;;5025248;28;20233;-51
2023/01/10 09:59:44;;;;;;;124.10;64.50;;;6.00;99.90;;;;;;5031110;28;20218;-50
2023/01/10 10:02:23;;;;;;;1483.53;207.30;;;5.90;99.90;;;;;;5030015;28;20286;-51
2023/01/10 10:05:04;;;;;;;1630.57;229.70;;;6.00;99.90;;;;;;5018920;28;20227;-50
2023/01/10 10:07:32;;;;;;;1080.67;200.97;;;6.00;99.90;;;;;;5030762;28;20276;-51
2023/01/10 10:10:02;;;;;;;287.30;58.63;;;6.10;99.90;;;;;;5030785;28;20221;-51
2023/01/10 10:12:42;;;;;;;316.30;75.03;;;6.00;99.90;;;;;;5030689;28;20666;-50
2023/01/10 10:15:20;;;;;;;221.10;64.67;;;6.10;99.90;;;;;;5030698;28;20249;-50
2023/01/10 10:17:55;;;;;;;630.00;125.77;;;6.00;99.90;;;;;;5030747;28;20679;-51
2023/01/10 10:20:31;;;;;;;471.47;130.53;;;6.00;99.90;;;;;;5030218;28;20832;-51
2023/01/10 10:23:13;;;;;;;259.67;62.47;;;6.00;99.90;;;;;;5030237;28;20230;-50
2023/01/10 10:25:54;;;;;;;254.53;50.37;;;6.00;99.90;;;;;;5030331;28;20579;-51
2023/01/10 10:28:52;;;;;;;97.33;30.33;;;6.00;99.90;;;;;;5028770;28;20287;-51
2023/01/10 10:31:31;;;;;;;647.83;157.80;;;6.10;99.90;;;;;;5029212;28;20631;-50
2023/01/10 10:34:11;;;;;;;190.97;68.27;;;6.10;99.90;;;;;;5028996;28;20315;-50
2023/01/10 10:36:45;;;;;;;200.47;49.27;;;6.10;99.90;;;;;;5021305;28;20247;-51
2023/01/10 10:39:16;;;;;;;223.03;48.23;;;6.20;99.90;;;;;;5014500;28;20247;-50
2023/01/10 10:41:49;;;;;;;553.70;113.63;;;6.20;99.90;;;;;;5025521;28;20296;-51
2023/01/10 10:44:35;;;;;;;600.73;181.37;;;6.20;99.90;;;;;;5016294;28;20229;-51
2023/01/10 10:47:14;;;;;;;1204.80;180.80;;;6.10;99.90;;;;;;5030151;28;20272;-51
2023/01/10 10:49:46;;;;;;;194.70;62.13;;;6.10;99.90;;;;;;5029997;28;20323;-51
2023/01/10 10:52:23;;;;;;;173.13;59.90;;;6.10;99.90;;;;;;5029869;28;20233;-51
2023/01/10 10:54:52;;;;;;;152.70;34.63;;;6.10;99.90;;;;;;5029618;28;20215;-51
2023/01/10 10:57:26;;;;;;;195.43;55.73;;;6.10;99.90;;;;;;5029457;28;20233;-50
2023/01/10 10:59:55;;;;;;;522.27;102.43;;;6.20;99.90;;;;;;5029551;28;20260;-51
2023/01/10 11:02:26;;;;;;;945.27;234.40;;;6.20;99.90;;;;;;5016490;28;20249;-51
2023/01/10 11:04:58;;;;;;;582.27;167.57;;;6.20;99.90;;;;;;5018314;28;20209;-51
2023/01/10 11:07:31;;;;;;;1280.47;204.63;;;6.20;99.90;;;;;;5028895;28;20226;-51
2023/01/10 11:10:10;;;;;;;473.97;76.57;;;6.10;99.90;;;;;;5029497;28;20216;-50
2023/01/10 11:12:44;;;;;;;410.13;76.77;;;6.10;99.90;;;;;;5028795;28;20286;-50
2023/01/10 11:15:12;;;;;;;1064.17;174.73;;;6.10;99.90;;;;;;5029006;28;20213;-51
2023/01/10 11:17:41;;;;;;;139.00;42.10;;;6.00;99.90;;;;;;5029223;28;20253;-51
2023/01/10 11:20:15;;;;;;;308.87;112.70;;;6.10;99.90;;;;;;5029250;28;20766;-50
2023/01/10 11:22:48;;;;;;;589.20;152.97;;;6.20;99.90;;;;;;5019361;28;20217;-50
2023/01/10 11:25:19;;;;;;;351.40;71.67;;;6.10;99.90;;;;;;5026689;28;20726;-50
2023/01/10 11:27:51;;;;;;;278.13;90.70;;;6.10;99.90;;;;;;5028472;28;20950;-51
2023/01/10 11:30:22;;;;;;;1950.27;347.87;;;6.10;99.90;;;;;;5029328;28;20252;-49
2023/01/10 11:32:54;;;;;;;562.03;158.10;;;6.10;99.90;;;;;;5028210;28;20255;-50
2023/01/10 11:35:26;;;;;;;1999.90;720.80;;;6.00;99.90;;;;;;5028466;28;20253;-50
2023/01/10 11:38:03;;;;;;;227.53;60.63;;;6.00;99.90;;;;;;5028274;28;20264;-51
2023/01/10 11:40:32;;;;;;;1517.73;262.27;;;6.10;99.90;;;;;;5027852;28;20260;-51
2023/01/10 11:43:24;;;;;;;1999.90;498.07;;;6.00;99.90;;;;;;5028929;28;20209;-51
2023/01/10 11:45:55;;;;;;;633.37;126.90;;;6.00;99.90;;;;;;5028405;28;20209;-50
2023/01/10 11:48:25;;;;;;;369.30;89.43;;;6.00;99.90;;;;;;5026077;28;20222;-50
2023/01/10 11:51:19;;;;;;;1462.70;277.93;;;6.00;99.90;;;;;;5029033;28;20219;-51
2023/01/10 11:53:50;;;;;;;1577.20;269.20;;;6.10;99.90;;;;;;5028534;28;20264;-51
2023/01/10 11:56:25;;;;;;;1916.67;296.87;;;6.10;99.90;;;;;;5024347;28;20208;-51
2023/01/10 11:58:57;;;;;;;388.30;102.30;;;6.10;99.90;;;;;;5028608;28;20261;-51
2023/01/10 12:01:34;;;;;;;1158.37;235.30;;;6.20;99.90;;;;;;5034851;28;20211;-51
2023/01/10 12:04:02;;;;;;;462.73;135.30;;;6.30;99.90;;;;;;5028518;28;20710;-51
2023/01/10 12:06:32;;;;;;;182.07;72.73;;;6.30;99.90;;;;;;5028775;28;20714;-51
2023/01/10 12:09:00;;;;;;;1213.30;191.50;;;6.40;99.90;;;;;;5016057;28;20277;-50
2023/01/10 12:11:31;;;;;;;280.77;86.83;;;6.50;99.90;;;;;;5019123;28;20808;-50
2023/01/10 12:14:02;;;;;;;1620.07;246.17;;;6.40;99.90;;;;;;5021040;28;20308;-51
2023/01/10 12:16:31;;;;;;;1127.67;167.27;;;6.40;99.90;;;;;;5028329;28;20244;-51
2023/01/10 12:19:01;;;;;;;651.67;187.37;;;6.40;99.90;;;;;;5027097;28;20225;-51
2023/01/10 12:21:39;;;;;;;163.73;53.80;;;6.40;99.90;;;;;;5016453;28;20233;-51
2023/01/10 12:24:16;;;;;;;163.20;46.33;;;6.40;99.90;;;;;;5016709;28;20643;-50
2023/01/10 12:26:46;;;;;;;766.60;121.80;;;6.40;99.90;;;;;;5028298;28;20264;-50
2023/01/10 12:29:20;;;;;;;477.33;124.60;;;6.40;99.90;;;;;;5025652;28;20256;-50
2023/01/10 12:31:50;;;;;;;1015.47;188.47;;;6.40;99.90;;;;;;5028662;28;20809;-50
2023/01/10 12:34:22;;;;;;;964.70;140.90;;;6.40;99.90;;;;;;5028053;28;20277;-51
2023/01/10 12:37:00;;;;;;;310.63;85.73;;;6.40;99.90;;;;;;5027845;28;20260;-51
2023/01/10 12:39:33;;;;;;;1425.57;278.97;;;6.40;99.90;;;;;;5028245;28;20234;-50
2023/01/10 12:45:03;;;;;;;434.13;108.20;;;6.30;99.90;;;;;;5024116;28;20244;-50
2023/01/10 12:47:38;;;;;;;1169.37;244.70;;;6.40;99.90;;;;;;5027088;28;20229;-50
2023/01/10 12:50:13;;;;;;;502.90;153.00;;;6.40;99.90;;;;;;5026681;28;20285;-50
2023/01/10 12:52:46;;;;;;;820.53;207.80;;;6.40;99.90;;;;;;5031599;28;20213;-51
2023/01/10 12:55:15;;;;;;;213.60;61.47;;;6.30;99.90;;;;;;5028897;28;20225;-51
2023/01/10 12:57:48;;;;;;;635.50;138.77;;;6.40;99.90;;;;;;5031556;28;20714;-50
2023/01/10 13:00:24;;;;;;;1238.83;261.03;;;6.40;99.90;;;;;;5032238;28;20209;-51
2023/01/10 13:02:54;;;;;;;731.37;195.60;;;6.50;99.90;;;;;;5031234;28;20217;-51
2023/01/10 13:05:24;;;;;;;326.93;81.57;;;6.40;99.90;;;;;;5032114;28;20202;-51